createdAt,value
2023-09-27T00:00:48.826Z,99.90
2023-09-27T00:06:10.648Z,99.90
2023-09-27T00:11:32.564Z,99.90
2023-09-27T00:16:54.613Z,99.90
2023-09-27T00:22:16.541Z,99.90
2023-09-27T00:27:38.393Z,99.90
2023-09-27T00:33:00.567Z,99.90
2023-09-27T00:38:22.622Z,99.90
2023-09-27T00:43:44.531Z,99.90
2023-09-27T00:49:06.415Z,99.90
2023-09-27T00:54:28.311Z,99.90
2023-09-27T00:59:50.149Z,99.90
2023-09-27T01:05:12.128Z,99.90
2023-09-27T01:10:34.081Z,99.90
2023-09-27T01:15:55.968Z,99.90
2023-09-27T01:21:17.817Z,99.90
2023-09-27T01:26:39.673Z,99.90
2023-09-27T01:32:01.556Z,99.90
2023-09-27T01:37:23.871Z,99.90
2023-09-27T01:42:45.695Z,99.90
2023-09-27T01:48:07.721Z,99.90
2023-09-27T01:53:29.632Z,99.90
2023-09-27T01:58:51.735Z,99.90
2023-09-27T02:04:13.838Z,99.90
2023-09-27T02:09:35.692Z,99.90
2023-09-27T02:14:57.517Z,99.90
2023-09-27T02:20:19.631Z,99.90
2023-09-27T02:25:41.523Z,99.90
2023-09-27T02:31:03.415Z,99.90
2023-09-27T02:36:25.329Z,99.90
2023-09-27T02:41:47.150Z,99.90
2023-09-27T02:47:09.026Z,99.90
2023-09-27T02:52:30.895Z,99.90
2023-09-27T02:57:55.147Z,99.90
2023-09-27T03:03:18.368Z,99.90
2023-09-27T03:08:40.403Z,99.90
2023-09-27T03:14:03.315Z,99.90
2023-09-27T03:19:25.269Z,99.90
2023-09-27T03:24:47.125Z,99.90
2023-09-27T03:30:09.020Z,99.90
2023-09-27T03:35:30.970Z,99.90
2023-09-27T03:40:52.865Z,99.90
2023-09-27T03:46:14.682Z,99.90
2023-09-27T03:51:36.532Z,99.90
2023-09-27T03:56:58.360Z,99.90
2023-09-27T04:02:20.230Z,99.90
2023-09-27T04:07:42.067Z,99.90
2023-09-27T04:13:03.901Z,99.90
2023-09-27T04:18:25.740Z,99.90
2023-09-27T04:23:47.727Z,99.90
2023-09-27T04:29:09.589Z,99.90
2023-09-27T04:34:31.440Z,99.90
2023-09-27T04:39:53.329Z,99.90
2023-09-27T04:45:15.190Z,99.90
2023-09-27T04:50:37.674Z,99.90
2023-09-27T04:55:59.612Z,99.90
2023-09-27T05:01:21.540Z,99.90
2023-09-27T05:06:43.397Z,99.90
2023-09-27T05:12:05.244Z,99.90
2023-09-27T05:17:27.259Z,99.90
2023-09-27T05:22:49.178Z,99.90
2023-09-27T05:28:11.033Z,99.90
2023-09-27T05:33:32.909Z,99.90
2023-09-27T05:38:54.877Z,99.90
2023-09-27T05:44:16.921Z,99.90
2023-09-27T05:49:38.790Z,99.90
2023-09-27T05:55:00.632Z,99.90
2023-09-27T06:00:22.564Z,99.90
2023-09-27T06:05:45.228Z,99.90
2023-09-27T06:11:07.213Z,99.90
2023-09-27T06:16:29.167Z,99.90
2023-09-27T06:21:51.012Z,99.90
2023-09-27T06:27:12.930Z,99.90
2023-09-27T06:32:34.913Z,99.90
2023-09-27T06:37:57.368Z,99.90
2023-09-27T06:43:19.188Z,99.90
2023-09-27T06:48:41.131Z,99.90
2023-09-27T06:54:03.176Z,99.90
2023-09-27T06:59:25.119Z,99.90
2023-09-27T07:04:47.007Z,99.90
2023-09-27T07:10:08.863Z,99.90
2023-09-27T07:15:30.690Z,99.90
2023-09-27T07:20:52.541Z,99.90
2023-09-27T07:26:14.547Z,99.90
2023-09-27T07:31:36.402Z,99.90
2023-09-27T07:36:58.226Z,99.90
2023-09-27T07:42:20.063Z,99.90
2023-09-27T07:47:42.067Z,99.90
2023-09-27T07:53:04.055Z,99.90
2023-09-27T07:58:25.893Z,99.90
2023-09-27T08:03:47.809Z,99.90
2023-09-27T08:09:17.534Z,99.90
2023-09-27T08:14:45.979Z,99.90
2023-09-27T08:20:07.805Z,99.90
2023-09-27T08:25:29.689Z,99.90
2023-09-27T08:30:51.562Z,99.90
2023-09-27T08:36:13.443Z,99.90
2023-09-27T08:41:35.334Z,99.90
2023-09-27T08:46:57.202Z,99.90
2023-09-27T08:52:19.051Z,99.90
2023-09-27T08:57:40.900Z,99.90
2023-09-27T09:03:03.357Z,99.90
2023-09-27T09:08:41.036Z,99.90
2023-09-27T09:14:05.896Z,99.90
2023-09-27T09:19:43.457Z,99.90
2023-09-27T09:25:05.887Z,99.90
2023-09-27T09:30:27.730Z,99.90
2023-09-27T09:35:49.671Z,99.90
2023-09-27T09:41:11.613Z,99.90
2023-09-27T09:46:33.581Z,99.90
2023-09-27T09:51:55.436Z,99.90
2023-09-27T09:57:28.003Z,99.80
2023-09-27T10:02:57.329Z,98.60
2023-09-27T10:08:19.300Z,98.30
2023-09-27T10:13:41.155Z,97.90
2023-09-27T10:19:03.010Z,96.50
2023-09-27T10:24:24.924Z,95.30
2023-09-27T10:29:47.013Z,94.20
2023-09-27T10:35:08.954Z,93.80
2023-09-27T10:40:30.814Z,93.30
2023-09-27T10:45:52.723Z,93.00
2023-09-27T10:51:14.597Z,93.50
2023-09-27T10:56:36.457Z,91.60
2023-09-27T11:01:58.392Z,91.20
2023-09-27T11:07:20.300Z,90.80
2023-09-27T11:12:42.205Z,91.40
2023-09-27T11:18:04.162Z,88.00
2023-09-27T11:23:26.148Z,89.70
2023-09-27T11:28:47.994Z,88.40
2023-09-27T11:34:10.033Z,89.00
2023-09-27T11:39:31.875Z,89.70
2023-09-27T11:44:53.793Z,90.00
2023-09-27T11:50:15.736Z,90.50
2023-09-27T11:55:37.608Z,88.40
2023-09-27T12:00:59.646Z,89.30
2023-09-27T12:06:21.861Z,86.90
2023-09-27T12:11:44.027Z,86.70
2023-09-27T12:17:05.907Z,87.40
2023-09-27T12:22:27.893Z,86.70
2023-09-27T12:27:49.846Z,85.80
2023-09-27T12:33:12.092Z,87.50
2023-09-27T12:38:34.105Z,86.40
2023-09-27T12:43:56.096Z,85.10
2023-09-27T12:49:18.021Z,83.20
2023-09-27T12:54:39.908Z,84.00
2023-09-27T13:00:03.788Z,83.40
2023-09-27T13:05:26.629Z,84.10
2023-09-27T13:10:48.753Z,82.90
2023-09-27T13:16:11.129Z,82.70
2023-09-27T13:21:33.057Z,83.70
2023-09-27T13:26:55.026Z,82.60
2023-09-27T13:32:17.110Z,82.10
2023-09-27T13:37:39.006Z,83.40
2023-09-27T13:43:01.061Z,83.30
2023-09-27T13:48:22.964Z,84.00
2023-09-27T13:53:44.965Z,84.90
2023-09-27T13:59:06.972Z,83.00
2023-09-27T14:04:28.989Z,84.30
2023-09-27T14:09:50.981Z,84.00
2023-09-27T14:15:13.900Z,85.00
2023-09-27T14:20:37.615Z,84.40
2023-09-27T14:25:59.517Z,85.30
2023-09-27T14:31:21.378Z,85.30
2023-09-27T14:36:43.288Z,85.20
2023-09-27T14:42:05.149Z,86.00
2023-09-27T14:47:27.200Z,86.80
2023-09-27T14:52:49.194Z,88.20
2023-09-27T14:58:11.090Z,87.10
2023-09-27T15:03:33.123Z,88.00
2023-09-27T15:08:55.035Z,88.60
2023-09-27T15:14:16.857Z,88.00
2023-09-27T15:19:38.735Z,88.30
2023-09-27T15:25:00.626Z,88.90
2023-09-27T15:30:22.550Z,89.60
2023-09-27T15:35:44.368Z,89.80
2023-09-27T15:41:06.188Z,90.20
2023-09-27T15:46:28.090Z,90.40
2023-09-27T15:51:49.954Z,90.80
2023-09-27T15:57:11.785Z,91.30
2023-09-27T16:02:33.676Z,91.40
2023-09-27T16:07:55.681Z,91.70
2023-09-27T16:13:17.620Z,92.40
2023-09-27T16:24:18.823Z,93.30
2023-09-27T16:29:40.849Z,94.20
2023-09-27T16:35:03.097Z,94.70
2023-09-27T16:40:24.990Z,95.30
2023-09-27T16:45:46.891Z,96.30
2023-09-27T16:51:08.782Z,97.10
2023-09-27T16:56:30.629Z,98.00
2023-09-27T17:01:52.602Z,99.10
2023-09-27T17:07:14.648Z,99.90
2023-09-27T17:12:36.527Z,99.90
2023-09-27T17:17:58.472Z,99.90
2023-09-27T17:23:20.357Z,99.90
2023-09-27T17:28:42.250Z,99.90
2023-09-27T17:34:04.236Z,99.90
2023-09-27T17:39:26.185Z,99.90
2023-09-27T17:44:49.036Z,99.90
2023-09-27T17:50:11.051Z,99.90
2023-09-27T17:55:32.952Z,99.90
2023-09-27T18:00:54.862Z,99.90
2023-09-27T18:06:16.763Z,99.90
2023-09-27T18:11:38.626Z,99.90
2023-09-27T18:17:00.640Z,99.90
2023-09-27T18:22:22.519Z,99.90
2023-09-27T18:27:44.356Z,99.90
2023-09-27T18:33:06.250Z,99.90
2023-09-27T18:38:28.109Z,99.90
2023-09-27T18:43:50.028Z,99.90
2023-09-27T18:49:11.906Z,99.90
2023-09-27T18:54:33.776Z,99.90
2023-09-27T18:59:55.618Z,99.90
2023-09-27T19:05:17.481Z,99.90
2023-09-27T19:10:39.477Z,99.90
2023-09-27T19:16:01.504Z,99.90
2023-09-27T19:21:23.383Z,99.90
2023-09-27T19:26:45.230Z,99.90
2023-09-27T19:32:07.101Z,99.90
2023-09-27T19:37:29.008Z,99.90
2023-09-27T19:42:50.898Z,99.90
2023-09-27T19:48:12.778Z,99.90
2023-09-27T19:53:34.648Z,99.90
2023-09-27T19:58:56.593Z,99.90
2023-09-27T20:04:18.498Z,99.90
2023-09-27T20:09:40.337Z,99.90
2023-09-27T20:15:02.175Z,99.90
2023-09-27T20:20:23.998Z,99.90
2023-09-27T20:25:45.869Z,99.90
2023-09-27T20:31:07.765Z,99.90
2023-09-27T20:36:29.647Z,99.90
2023-09-27T20:41:51.644Z,99.90
2023-09-27T20:47:13.514Z,99.90
2023-09-27T20:52:35.441Z,99.90
2023-09-27T20:57:57.379Z,99.90
2023-09-27T21:03:19.370Z,99.90
2023-09-27T21:08:41.289Z,99.90
2023-09-27T21:14:03.157Z,99.90
2023-09-27T21:19:25.137Z,99.90
2023-09-27T21:24:46.985Z,99.90
2023-09-27T21:30:08.824Z,99.90
2023-09-27T21:35:30.681Z,99.90
2023-09-27T21:40:52.639Z,99.90
2023-09-27T21:46:14.604Z,99.90
2023-09-27T21:51:36.445Z,99.90
2023-09-27T21:56:58.323Z,99.90
2023-09-27T22:02:20.163Z,99.90
2023-09-27T22:07:42.053Z,99.90
2023-09-27T22:13:03.924Z,99.90
2023-09-27T22:18:25.786Z,99.90
2023-09-27T22:23:47.649Z,99.90
2023-09-27T22:29:09.572Z,99.90
2023-09-27T22:34:31.462Z,99.90
2023-09-27T22:40:04.581Z,99.90
2023-09-27T22:45:34.744Z,99.90
2023-09-27T22:50:56.610Z,99.90
2023-09-27T22:56:18.475Z,99.90
2023-09-27T23:01:40.368Z,99.90
2023-09-27T23:07:02.373Z,99.90
2023-09-27T23:12:24.518Z,99.90
2023-09-27T23:17:46.370Z,99.90
2023-09-27T23:23:08.843Z,99.90
2023-09-27T23:28:30.887Z,99.90
2023-09-27T23:33:53.054Z,99.90
2023-09-27T23:39:15.086Z,99.90
2023-09-27T23:44:36.918Z,99.90
2023-09-27T23:49:58.791Z,99.90
2023-09-27T23:55:20.660Z,99.90
